Time;durP1;ratioP1;P1;durP2;ratioP2;P2;SDS_P1;SDS_P2;PMS_P1;PMS_P2;Temp;Humidity;BMP_temperature;BMP_pressure;BME280_temperature;BME280_humidity;BME280_pressure;Samples;Min_cycle;Max_cycle;Signal;HPM_P1;HPM_P2
2022/06/27 00:02:23;;;;;;;6.20;2.30;;;;;;;16.01;100.00;96486.09;5033841;28;20048;-73
2022/06/27 00:04:49;;;;;;;6.13;1.88;;;;;;;15.93;100.00;96504.78;5033998;28;20588;-73
2022/06/27 00:07:15;;;;;;;4.18;1.90;;;;;;;15.85;100.00;96514.28;5032506;28;20052;-74
2022/06/27 00:09:40;;;;;;;5.60;2.30;;;;;;;15.92;100.00;96524.78;5035425;28;20033;-75
2022/06/27 00:12:07;;;;;;;6.07;2.25;;;;;;;15.93;100.00;96526.38;5035976;28;20461;-73
2022/06/27 00:14:32;;;;;;;8.15;2.28;;;;;;;15.86;100.00;96514.00;5033193;28;20554;-73
2022/06/27 00:16:58;;;;;;;7.75;2.30;;;;;;;15.90;100.00;96511.56;5035167;28;20051;-74
2022/06/27 00:19:23;;;;;;;10.07;2.40;;;;;;;15.93;100.00;96508.31;5033071;28;20103;-74
2022/06/27 00:21:49;;;;;;;4.95;2.20;;;;;;;15.97;100.00;96512.06;5036259;28;20045;-73
2022/06/27 00:24:14;;;;;;;5.70;2.42;;;;;;;16.06;100.00;96506.88;5032312;28;20434;-73
2022/06/27 00:26:40;;;;;;;11.02;3.10;;;;;;;16.08;100.00;96508.19;5033128;28;20525;-74
2022/06/27 00:29:06;;;;;;;5.10;2.22;;;;;;;16.02;100.00;96514.69;5034394;28;20052;-73
2022/06/27 00:31:32;;;;;;;6.15;2.50;;;;;;;15.99;100.00;96530.66;5048550;28;20036;-74
2022/06/27 00:33:57;;;;;;;10.40;2.97;;;;;;;15.81;100.00;96537.53;5031311;28;20407;-73
2022/06/27 00:36:23;;;;;;;6.53;2.78;;;;;;;15.85;100.00;96530.47;5033189;28;20041;-73
2022/06/27 00:38:48;;;;;;;10.90;3.10;;;;;;;15.91;100.00;96505.09;5033010;28;20379;-73
2022/06/27 00:41:14;;;;;;;8.52;3.00;;;;;;;16.01;100.00;96496.91;5031874;28;20124;-73
2022/06/27 00:43:43;;;;;;;9.07;2.92;;;;;;;16.07;100.00;96487.69;5034581;28;20028;-73
2022/06/27 00:46:10;;;;;;;20.48;3.03;;;;;;;16.09;100.00;96482.00;5031591;28;20301;-73
2022/06/27 00:48:35;;;;;;;5.68;2.90;;;;;;;16.08;100.00;96475.00;5035439;28;20083;-73
2022/06/27 00:51:01;;;;;;;6.57;3.00;;;;;;;16.10;100.00;96479.00;5036476;28;20403;-73
2022/06/27 00:53:28;;;;;;;9.65;2.70;;;;;;;16.02;100.00;96481.50;5034009;28;20032;-73
2022/06/27 00:55:55;;;;;;;5.38;2.60;;;;;;;15.92;100.00;96477.00;5030352;28;20100;-73
2022/06/27 00:58:20;;;;;;;6.43;2.90;;;;;;;15.85;100.00;96466.53;5050078;28;20041;-73
2022/06/27 01:00:46;;;;;;;5.10;2.45;;;;;;;15.78;100.00;96457.94;5031857;28;20420;-74
2022/06/27 01:03:11;;;;;;;6.80;2.58;;;;;;;15.82;100.00;96450.13;5029956;28;20060;-73
2022/06/27 01:05:37;;;;;;;7.40;2.78;;;;;;;15.90;100.00;96449.50;5034486;28;20029;-73
2022/06/27 01:08:02;;;;;;;5.40;2.47;;;;;;;15.97;100.00;96443.78;5033991;28;20514;-74
2022/06/27 01:10:28;;;;;;;6.50;2.83;;;;;;;15.96;100.00;96434.91;5031239;28;20040;-73
2022/06/27 01:12:54;;;;;;;5.20;2.30;;;;;;;15.97;100.00;96433.00;5033940;28;20037;-73
2022/06/27 01:15:20;;;;;;;9.63;3.17;;;;;;;15.95;100.00;96437.84;5014263;28;20522;-73
2022/06/27 01:17:46;;;;;;;6.13;2.72;;;;;;;15.96;100.00;96434.09;5047848;28;20041;-73
2022/06/27 01:20:12;;;;;;;5.40;2.78;;;;;;;15.95;100.00;96427.84;5048331;28;20391;-73
2022/06/27 01:22:37;;;;;;;5.10;2.42;;;;;;;15.89;100.00;96429.00;5039240;28;20040;-73
2022/06/27 01:25:06;;;;;;;3.67;2.30;;;;;;;15.78;100.00;96428.28;5031601;28;20137;-73
2022/06/27 01:27:32;;;;;;;6.28;2.30;;;;;;;15.72;100.00;96429.44;5033707;28;20032;-74
2022/06/27 01:29:58;;;;;;;4.63;2.45;;;;;;;15.57;100.00;96430.31;5034103;28;20029;-73
2022/06/27 01:32:26;;;;;;;4.55;2.30;;;;;;;15.57;100.00;96424.09;5050841;28;20044;-73
2022/06/27 01:34:53;;;;;;;5.30;2.47;;;;;;;15.55;100.00;96426.25;5036930;28;20052;-73
2022/06/27 01:37:18;;;;;;;5.32;2.90;;;;;;;15.53;100.00;96437.34;5039909;28;20353;-74
2022/06/27 01:39:45;;;;;;;5.28;2.45;;;;;;;15.42;100.00;96445.78;5051478;28;20044;-73
2022/06/27 01:42:11;;;;;;;4.05;2.53;;;;;;;15.32;100.00;96449.31;5036447;28;20036;-73
2022/06/27 01:44:36;;;;;;;10.30;2.72;;;;;;;15.24;100.00;96455.31;5050631;28;20030;-72
2022/06/27 01:47:05;;;;;;;6.78;2.72;;;;;;;15.15;100.00;96457.78;5035743;28;20419;-73
2022/06/27 01:49:33;;;;;;;5.53;2.90;;;;;;;15.09;100.00;96471.53;5054347;28;20033;-74
2022/06/27 01:52:03;;;;;;;5.00;2.95;;;;;;;15.13;100.00;96468.03;5039234;28;20076;-73
2022/06/27 01:54:29;;;;;;;9.07;3.25;;;;;;;15.15;100.00;96463.16;5034175;28;20069;-74
2022/06/27 01:56:55;;;;;;;5.78;2.90;;;;;;;15.09;100.00;96466.16;5054686;28;20098;-73
2022/06/27 01:59:27;;;;;;;5.30;2.72;;;;;;;15.06;100.00;96464.84;5038417;28;20741;-75
2022/06/27 02:01:59;;;;;;;5.60;2.83;;;;;;;15.04;100.00;96467.81;5035432;28;20037;-73
2022/06/27 02:04:27;;;;;;;6.60;3.75;;;;;;;15.04;100.00;96457.03;5031571;28;20492;-73
2022/06/27 02:06:54;;;;;;;8.15;3.42;;;;;;;15.04;100.00;96437.38;5035662;28;20122;-74
2022/06/27 02:09:20;;;;;;;6.70;3.80;;;;;;;15.10;100.00;96443.50;5035854;28;20396;-74
2022/06/27 02:11:47;;;;;;;7.13;3.47;;;;;;;15.08;100.00;96462.66;5034850;28;20032;-73
2022/06/27 02:14:17;;;;;;;5.32;3.55;;;;;;;15.08;100.00;96465.34;5051053;28;20041;-73
2022/06/27 02:16:43;;;;;;;4.78;3.28;;;;;;;15.11;100.00;96447.84;5035304;28;20128;-74
2022/06/27 02:19:17;;;;;;;7.40;3.45;;;;;;;15.08;100.00;96443.00;5033620;28;20041;-73
2022/06/27 02:21:44;;;;;;;9.65;4.25;;;;;;;15.12;100.00;96449.44;5037096;28;20144;-73
2022/06/27 02:24:11;;;;;;;6.93;3.70;;;;;;;15.14;100.00;96449.97;5036900;28;20044;-73
2022/06/27 02:26:37;;;;;;;7.72;4.13;;;;;;;15.20;100.00;96446.97;5038145;28;20028;-73
2022/06/27 02:29:03;;;;;;;6.60;3.70;;;;;;;15.17;100.00;96450.22;5036564;28;20040;-74
2022/06/27 02:31:31;;;;;;;6.28;3.65;;;;;;;15.12;100.00;96442.16;5054844;28;20385;-73
2022/06/27 02:33:57;;;;;;;8.55;3.80;;;;;;;15.11;100.00;96437.06;5039421;28;20025;-74
2022/06/27 02:36:31;;;;;;;9.32;4.65;;;;;;;15.16;100.00;96435.13;5015327;28;20165;-73
2022/06/27 02:38:58;;;;;;;7.45;5.03;;;;;;;15.26;100.00;96434.28;5037157;28;20033;-73
2022/06/27 02:41:27;;;;;;;12.82;4.95;;;;;;;15.31;100.00;96439.63;5034183;28;20036;-73
2022/06/27 02:44:00;;;;;;;73.40;5.50;;;;;;;15.32;100.00;96449.31;5033871;28;20021;-73
2022/06/27 02:46:27;;;;;;;73.20;6.00;;;;;;;15.30;100.00;96452.31;5034493;28;20029;-74
2022/06/27 02:48:53;;;;;;;18.10;5.60;;;;;;;15.48;100.00;96453.53;5051307;28;20025;-73
2022/06/27 02:51:22;;;;;;;32.33;6.13;;;;;;;15.61;100.00;96449.44;5053670;28;20436;-73
2022/06/27 02:54:00;;;;;;;29.40;5.45;;;;;;;15.75;100.00;96453.13;5051089;28;20052;-73
2022/06/27 02:57:14;;;;;;;21.58;5.03;;;;;;;15.93;100.00;96448.13;5023483;28;20665;-73
2022/06/27 02:59:42;;;;;;;25.27;5.20;;;;;;;15.99;100.00;96445.13;5037071;28;20582;-73
2022/06/27 03:02:10;;;;;;;46.60;6.60;;;;;;;16.04;100.00;96436.97;5034866;28;20038;-73
2022/06/27 03:05:06;;;;;;;53.25;5.53;;;;;;;16.06;100.00;96425.91;5037165;28;20105;-73
2022/06/27 03:07:40;;;;;;;61.08;5.80;;;;;;;16.06;100.00;96429.41;5051188;28;20072;-74
2022/06/27 03:10:09;;;;;;;75.15;6.53;;;;;;;16.06;100.00;96423.19;5036012;28;20055;-74
2022/06/27 03:12:37;;;;;;;140.97;6.87;;;;;;;16.14;100.00;96414.47;5038029;28;20351;-74
2022/06/27 03:15:04;;;;;;;199.57;7.70;;;;;;;16.17;100.00;96403.09;5031776;28;20044;-74
2022/06/27 03:17:29;;;;;;;285.58;8.38;;;;;;;16.22;100.00;96403.06;5031989;28;20049;-74
2022/06/27 03:20:27;;;;;;;113.45;5.50;;;;;;;16.24;100.00;96389.28;5003237;28;20576;-74
2022/06/27 03:23:31;;;;;;;99.53;5.22;;;;;;;16.30;100.00;96383.53;5023881;28;20046;-74
2022/06/27 03:25:58;;;;;;;66.20;5.47;;;;;;;16.26;100.00;96376.28;5036790;28;20045;-73
2022/06/27 03:28:29;;;;;;;49.90;4.40;;;;;;;16.25;100.00;96378.19;5032055;28;20322;-74
2022/06/27 03:30:58;;;;;;;94.07;5.07;;;;;;;16.17;100.00;96374.22;5031486;28;20044;-73
2022/06/27 03:33:24;;;;;;;107.07;6.85;;;;;;;16.17;100.00;96381.50;5036997;28;20029;-73
2022/06/27 03:35:58;;;;;;;68.93;5.95;;;;;;;16.14;100.00;96376.69;5032313;28;20110;-74
2022/06/27 03:38:24;;;;;;;44.22;6.13;;;;;;;16.14;100.00;96372.09;5030533;28;20036;-73
2022/06/27 03:40:49;;;;;;;29.35;5.53;;;;;;;16.27;100.00;96364.41;5034586;28;20033;-73
2022/06/27 03:43:15;;;;;;;232.15;8.60;;;;;;;16.30;100.00;96372.75;5030703;28;20041;-73
2022/06/27 03:45:41;;;;;;;307.95;9.10;;;;;;;16.31;100.00;96377.03;5028816;28;20029;-73
2022/06/27 03:48:07;;;;;;;396.00;9.82;;;;;;;16.31;100.00;96381.63;5030562;28;20048;-74
2022/06/27 03:50:34;;;;;;;467.08;11.65;;;;;;;16.30;100.00;96380.03;5035143;28;20029;-73
2022/06/27 03:53:01;;;;;;;417.50;10.20;;;;;;;16.28;100.00;96374.94;5034093;28;20155;-74
2022/06/27 03:55:30;;;;;;;265.35;8.05;;;;;;;16.32;100.00;96381.34;5036092;28;20025;-74
2022/06/27 03:57:57;;;;;;;290.55;8.52;;;;;;;16.33;100.00;96388.34;5030556;28;20043;-73
2022/06/27 04:00:32;;;;;;;174.88;7.57;;;;;;;16.31;100.00;96392.44;5030720;28;20059;-73
2022/06/27 04:02:59;;;;;;;208.20;8.05;;;;;;;16.34;100.00;96394.56;5031762;28;20040;-73
2022/06/27 04:05:48;;;;;;;64.43;6.00;;;;;;;16.37;100.00;96391.31;5049686;28;20033;-74
2022/06/27 04:08:13;;;;;;;84.82;6.15;;;;;;;16.36;100.00;96401.31;5033284;28;20048;-73
2022/06/27 04:10:43;;;;;;;120.63;6.80;;;;;;;16.33;100.00;96396.44;5033597;28;20067;-74
2022/06/27 04:13:10;;;;;;;196.77;6.78;;;;;;;16.30;100.00;96397.03;5035583;28;20036;-74
2022/06/27 04:15:36;;;;;;;161.75;7.18;;;;;;;16.26;100.00;96395.97;5034454;28;20025;-73
2022/06/27 04:18:20;;;;;;;124.75;6.85;;;;;;;16.27;100.00;96400.31;5035582;28;20243;-73
2022/06/27 04:21:14;;;;;;;127.60;6.82;;;;;;;16.31;100.00;96400.53;5033252;28;20534;-73
2022/06/27 04:23:46;;;;;;;163.20;7.35;;;;;;;16.28;100.00;96412.72;5046067;28;20539;-74
2022/06/27 04:26:17;;;;;;;254.48;9.13;;;;;;;16.30;100.00;96424.03;5035634;28;20562;-73
2022/06/27 04:28:44;;;;;;;433.48;11.82;;;;;;;16.35;100.00;96417.78;5032686;28;20044;-74
2022/06/27 04:31:10;;;;;;;383.02;9.98;;;;;;;16.32;100.00;96405.66;5047261;28;20507;-72
2022/06/27 04:33:36;;;;;;;404.95;11.63;;;;;;;16.30;100.00;96415.13;5035722;28;20538;-73
2022/06/27 04:36:02;;;;;;;734.20;17.45;;;;;;;16.22;100.00;96423.84;5036726;28;20029;-74
2022/06/27 04:38:29;;;;;;;81.60;6.45;;;;;;;16.10;100.00;96437.72;5035019;28;20194;-73
2022/06/27 04:41:14;;;;;;;39.42;5.28;;;;;;;16.03;100.00;96429.13;5009713;28;20041;-74
2022/06/27 04:43:45;;;;;;;82.93;6.17;;;;;;;16.06;100.00;96429.41;5030365;28;20131;-74
2022/06/27 04:46:11;;;;;;;72.10;6.43;;;;;;;16.11;100.00;96434.75;5030764;28;20091;-75
2022/06/27 04:49:02;;;;;;;143.88;7.00;;;;;;;16.15;100.00;96427.69;5033501;28;20114;-74
2022/06/27 04:51:28;;;;;;;100.95;7.10;;;;;;;16.19;100.00;96422.53;5034160;28;20483;-73
2022/06/27 04:53:53;;;;;;;55.90;6.25;;;;;;;16.20;100.00;96420.66;5032142;28;20510;-74
2022/06/27 04:56:19;;;;;;;162.40;7.68;;;;;;;16.16;100.00;96433.88;5031985;28;20033;-74
2022/06/27 04:58:45;;;;;;;181.25;9.02;;;;;;;16.20;100.00;96440.34;5031735;28;20551;-74
2022/06/27 05:01:15;;;;;;;239.45;9.30;;;;;;;16.23;100.00;96439.75;5050298;28;20098;-73
2022/06/27 05:03:47;;;;;;;365.55;10.10;;;;;;;16.24;100.00;96430.56;5029755;28;20457;-73
2022/06/27 05:06:24;;;;;;;144.02;6.60;;;;;;;16.17;100.00;96435.50;5030641;28;20041;-74
2022/06/27 05:08:50;;;;;;;304.17;9.23;;;;;;;16.16;100.00;96437.38;5034538;28;20048;-75
2022/06/27 05:11:16;;;;;;;383.98;10.70;;;;;;;16.16;100.00;96445.50;5031083;28;20037;-74
2022/06/27 05:13:42;;;;;;;262.00;8.40;;;;;;;16.14;100.00;96453.06;5036437;28;20036;-74
2022/06/27 05:16:18;;;;;;;303.48;9.43;;;;;;;16.19;100.00;96448.72;5029946;28;20053;-74
2022/06/27 05:18:44;;;;;;;367.70;12.00;;;;;;;16.13;100.00;96432.56;5033019;28;20033;-74
2022/06/27 05:21:11;;;;;;;595.35;18.38;;;;;;;16.10;100.00;96432.31;5030284;28;20051;-73
2022/06/27 05:23:39;;;;;;;38.13;14.00;;;;;;;16.01;100.00;96426.72;5033819;28;20033;-73
2022/06/27 05:26:05;;;;;;;41.25;16.65;;;;;;;16.03;100.00;96423.75;5030789;28;20041;-74
2022/06/27 05:28:32;;;;;;;30.95;16.98;;;;;;;16.17;100.00;96416.59;5035726;28;20033;-74
2022/06/27 05:30:58;;;;;;;31.75;17.75;;;;;;;16.35;100.00;96399.69;5031963;28;20086;-74
2022/06/27 05:33:24;;;;;;;30.77;18.38;;;;;;;16.48;100.00;96391.97;5032416;28;20492;-71
2022/06/27 05:35:50;;;;;;;31.15;17.73;;;;;;;16.54;100.00;96402.44;5035068;28;20294;-72
2022/06/27 05:38:16;;;;;;;33.40;19.33;;;;;;;16.57;100.00;96395.66;5031965;28;20037;-72
2022/06/27 05:40:41;;;;;;;29.92;18.20;;;;;;;16.62;100.00;96382.91;5051712;28;20241;-71
2022/06/27 05:43:07;;;;;;;32.92;18.15;;;;;;;16.73;100.00;96382.81;5046545;28;20033;-71
2022/06/27 05:45:34;;;;;;;35.35;18.55;;;;;;;16.81;100.00;96404.59;5030660;28;20137;-71
2022/06/27 05:48:19;;;;;;;29.42;18.27;;;;;;;16.83;100.00;96413.22;5031666;28;20037;-71
2022/06/27 05:51:16;;;;;;;41.42;22.58;;;;;;;16.88;100.00;96423.94;5011784;28;20539;-71
2022/06/27 05:53:44;;;;;;;45.40;25.60;;;;;;;16.83;100.00;96428.63;5052170;28;20044;-71
2022/06/27 05:56:10;;;;;;;49.55;28.23;;;;;;;16.69;100.00;96436.63;5032514;28;20363;-71
2022/06/27 05:58:38;;;;;;;57.17;31.42;;;;;;;16.58;100.00;96438.59;5033166;28;20037;-72
2022/06/27 06:01:05;;;;;;;51.47;30.80;;;;;;;16.48;100.00;96438.69;5031051;28;20127;-73
2022/06/27 06:03:31;;;;;;;47.67;28.52;;;;;;;16.39;100.00;96433.13;5035280;28;20334;-71
2022/06/27 06:05:57;;;;;;;43.30;27.15;;;;;;;16.47;100.00;96442.50;5048525;28;20111;-71
2022/06/27 06:08:25;;;;;;;49.38;28.02;;;;;;;16.55;100.00;96438.38;5018428;28;20086;-71
2022/06/27 06:10:52;;;;;;;52.00;29.33;;;;;;;16.65;100.00;96449.88;5029327;28;20060;-71
2022/06/27 06:13:19;;;;;;;46.92;25.75;;;;;;;16.70;100.00;96449.03;5047664;28;20232;-72
2022/06/27 06:15:45;;;;;;;45.95;26.17;;;;;;;16.75;100.00;96454.38;5031550;28;20045;-71
2022/06/27 06:18:11;;;;;;;46.47;26.45;;;;;;;16.99;100.00;96452.47;5035077;28;20100;-74
2022/06/27 06:20:39;;;;;;;46.40;27.17;;;;;;;16.99;100.00;96440.84;5034206;28;20586;-73
2022/06/27 06:23:05;;;;;;;51.20;26.83;;;;;;;17.00;100.00;96447.88;5038731;28;20492;-73
2022/06/27 06:25:31;;;;;;;48.42;26.30;;;;;;;17.22;100.00;96450.84;5031359;28;20041;-73
2022/06/27 06:28:04;;;;;;;45.33;23.52;;;;;;;17.54;100.00;96460.94;5037311;28;20044;-73
2022/06/27 06:30:31;;;;;;;41.72;21.13;;;;;;;18.01;100.00;96456.47;5038856;28;20253;-73
2022/06/27 06:33:04;;;;;;;41.75;20.63;;;;;;;18.06;100.00;96452.88;5039580;28;20362;-72
2022/06/27 06:35:32;;;;;;;38.85;19.33;;;;;;;18.22;100.00;96450.72;5031937;28;20100;-72
2022/06/27 06:37:58;;;;;;;33.65;18.73;;;;;;;18.34;100.00;96468.06;5038290;28;20115;-76
2022/06/27 06:40:25;;;;;;;39.72;18.73;;;;;;;18.62;100.00;96473.56;5035334;28;21080;-71
2022/06/27 06:42:51;;;;;;;32.20;16.98;;;;;;;18.75;100.00;96470.06;5038402;28;20048;-71
2022/06/27 06:45:24;;;;;;;39.40;16.70;;;;;;;18.69;100.00;96482.13;5054009;28;20037;-72
2022/06/27 06:48:19;;;;;;;32.55;16.40;;;;;;;18.55;100.00;96492.91;5018761;28;20033;-73
2022/06/27 06:50:45;;;;;;;36.35;18.00;;;;;;;18.47;100.00;96503.63;5033020;28;20392;-73
2022/06/27 06:53:11;;;;;;;34.17;17.63;;;;;;;18.42;100.00;96495.59;5034092;28;20036;-72
2022/06/27 06:55:36;;;;;;;35.15;18.92;;;;;;;18.12;100.00;96499.59;5034306;28;20045;-73
2022/06/27 06:58:02;;;;;;;34.55;18.63;;;;;;;17.93;100.00;96505.06;5037591;28;20076;-74
2022/06/27 07:00:28;;;;;;;34.53;18.58;;;;;;;18.21;100.00;96492.41;5036684;28;20438;-73
2022/06/27 07:02:56;;;;;;;40.33;19.80;;;;;;;18.29;100.00;96492.56;5034940;28;20033;-73
2022/06/27 07:05:22;;;;;;;35.90;17.73;;;;;;;18.62;100.00;96490.63;5033487;28;20044;-72
2022/06/27 07:07:51;;;;;;;34.65;17.95;;;;;;;18.70;100.00;96482.94;5034905;28;20032;-72
2022/06/27 07:10:17;;;;;;;27.83;16.17;;;;;;;18.56;100.00;96469.31;5034949;28;20045;-72
2022/06/27 07:12:42;;;;;;;25.63;15.77;;;;;;;18.73;100.00;96457.94;5038122;28;20029;-73
2022/06/27 07:15:12;;;;;;;33.15;16.65;;;;;;;18.72;100.00;96456.31;5035491;28;20111;-73
2022/06/27 07:17:46;;;;;;;33.58;16.70;;;;;;;18.73;100.00;96449.78;5035384;28;20045;-73
2022/06/27 07:20:13;;;;;;;36.47;17.83;;;;;;;18.81;100.00;96424.69;5035349;28;20563;-73
2022/06/27 07:22:40;;;;;;;29.45;14.38;;;;;;;18.92;100.00;96426.13;5037320;28;20116;-73
2022/06/27 07:25:07;;;;;;;25.95;13.77;;;;;;;19.13;100.00;96431.91;5033309;28;20048;-74
2022/06/27 07:27:36;;;;;;;24.50;13.82;;;;;;;18.74;100.00;96430.53;5032765;28;20451;-73
2022/06/27 07:30:03;;;;;;;20.80;11.77;;;;;;;18.83;100.00;96414.34;5049452;28;20045;-74
2022/06/27 07:32:31;;;;;;;22.10;11.40;;;;;;;18.70;100.00;96401.63;5033569;28;20083;-73
2022/06/27 07:34:58;;;;;;;20.92;10.80;;;;;;;18.42;100.00;96434.09;5035605;28;20052;-73
2022/06/27 07:37:25;;;;;;;18.33;11.25;;;;;;;18.59;100.00;96441.63;5036525;28;20048;-74
2022/06/27 07:39:50;;;;;;;18.27;11.50;;;;;;;18.92;100.00;96443.19;5035972;28;20033;-75
2022/06/27 07:42:16;;;;;;;22.08;12.43;;;;;;;19.31;100.00;96435.59;5036729;28;20044;-73
2022/06/27 07:44:42;;;;;;;20.42;11.43;;;;;;;20.15;100.00;96419.50;5020504;28;20060;-73
2022/06/27 07:47:10;;;;;;;20.73;10.75;;;;;;;20.72;100.00;96427.84;5035812;28;20033;-75
2022/06/27 07:49:35;;;;;;;15.80;9.40;;;;;;;20.30;100.00;96435.41;5035866;28;20048;-75
2022/06/27 07:52:01;;;;;;;15.18;9.43;;;;;;;20.55;100.00;96438.63;5038104;28;20507;-74
2022/06/27 07:54:29;;;;;;;16.15;9.02;;;;;;;20.96;100.00;96442.94;5032312;28;20061;-74
2022/06/27 07:56:55;;;;;;;16.05;9.82;;;;;;;20.94;100.00;96445.19;5035961;28;20249;-74
2022/06/27 07:59:22;;;;;;;17.88;11.20;;;;;;;20.50;100.00;96464.03;5036859;28;20159;-74
2022/06/27 08:01:48;;;;;;;13.20;8.35;;;;;;;20.11;100.00;96464.72;5039050;28;20292;-73
2022/06/27 08:04:15;;;;;;;14.95;7.63;;;;;;;20.20;100.00;96462.84;5036383;28;20780;-74
2022/06/27 08:06:42;;;;;;;12.80;8.10;;;;;;;20.48;100.00;96462.75;5036684;28;20116;-75
2022/06/27 08:09:09;;;;;;;11.65;7.55;;;;;;;20.61;100.00;96450.97;5037500;28;20079;-74
2022/06/27 08:11:40;;;;;;;10.60;7.00;;;;;;;20.59;100.00;96455.91;5036444;28;20032;-73
2022/06/27 08:14:09;;;;;;;11.88;7.97;;;;;;;20.25;100.00;96457.31;5034482;28;20044;-74
2022/06/27 08:16:37;;;;;;;11.18;7.65;;;;;;;20.43;100.00;96443.81;5036317;28;20048;-73
2022/06/27 08:19:03;;;;;;;11.70;7.15;;;;;;;20.42;100.00;96461.22;5036286;28;20107;-73
2022/06/27 08:21:30;;;;;;;12.57;7.05;;;;;;;20.33;100.00;96463.91;5035905;28;20060;-74
2022/06/27 08:24:00;;;;;;;12.57;8.05;;;;;;;19.88;100.00;96476.69;5033598;28;20033;-73
2022/06/27 08:26:28;;;;;;;13.60;8.73;;;;;;;19.75;100.00;96479.13;5019679;28;20350;-74
2022/06/27 08:28:54;;;;;;;12.30;6.35;;;;;;;20.26;100.00;96475.22;5031914;28;20616;-73
2022/06/27 08:31:21;;;;;;;14.13;7.10;;;;;;;20.33;100.00;96482.13;5033480;28;20039;-73
2022/06/27 08:33:49;;;;;;;12.05;6.88;;;;;;;20.16;100.00;96490.97;5035493;28;20215;-73
2022/06/27 08:36:17;;;;;;;18.65;8.07;;;;;;;20.82;100.00;96481.13;5032660;28;20033;-73
2022/06/27 08:38:50;;;;;;;12.90;7.47;;;;;;;21.28;100.00;96477.97;5000350;28;20028;-74
2022/06/27 08:41:17;;;;;;;12.05;7.20;;;;;;;20.48;100.00;96485.28;5032649;28;20477;-73
2022/06/27 08:43:43;;;;;;;15.55;8.32;;;;;;;20.57;100.00;96491.56;5035938;28;20119;-73
2022/06/27 08:46:15;;;;;;;13.48;7.95;;;;;;;21.55;100.00;96504.09;5031048;28;20041;-73
2022/06/27 08:48:42;;;;;;;16.38;9.00;;;;;;;21.29;100.00;96506.78;5039907;28;20115;-73
2022/06/27 08:51:09;;;;;;;17.08;9.85;;;;;;;21.32;100.00;96505.31;5033439;28;20368;-74
2022/06/27 08:53:35;;;;;;;14.93;8.40;;;;;;;21.38;100.00;96510.31;5035561;28;20045;-73
2022/06/27 08:56:01;;;;;;;13.57;8.60;;;;;;;21.42;100.00;96510.50;5027432;28;20474;-73
2022/06/27 08:58:30;;;;;;;12.80;7.78;;;;;;;21.91;100.00;96514.72;5033783;28;20926;-73
2022/06/27 09:00:56;;;;;;;12.77;8.00;;;;;;;22.39;100.00;96511.03;5031490;28;20362;-74
2022/06/27 09:03:23;;;;;;;12.18;6.55;;;;;;;22.94;100.00;96514.94;5031966;28;20362;-74
2022/06/27 09:05:57;;;;;;;11.60;6.95;;;;;;;22.95;100.00;96506.44;5035607;28;20140;-74
2022/06/27 09:08:28;;;;;;;9.05;6.45;;;;;;;22.98;100.00;96516.72;5048999;28;20074;-74
2022/06/27 09:10:54;;;;;;;13.30;7.53;;;;;;;22.52;100.00;96523.69;5032146;28;20070;-74
2022/06/27 09:13:20;;;;;;;10.18;7.47;;;;;;;22.51;100.00;96546.63;5034487;28;20476;-74
2022/06/27 09:15:53;;;;;;;11.13;7.47;;;;;;;22.90;100.00;96546.75;5034193;28;20059;-74
2022/06/27 09:18:27;;;;;;;9.82;7.20;;;;;;;23.52;100.00;96548.91;5037888;28;20032;-74
2022/06/27 09:20:57;;;;;;;13.48;9.05;;;;;;;22.73;100.00;96547.56;5036038;28;20684;-74
2022/06/27 09:23:32;;;;;;;14.00;10.00;;;;;;;22.62;100.00;96549.03;5051350;28;20041;-73
2022/06/27 09:26:05;;;;;;;14.35;8.85;;;;;;;22.72;100.00;96540.50;5017522;28;20037;-74
2022/06/27 09:28:45;;;;;;;14.88;9.65;;;;;;;22.85;100.00;96546.88;5006996;28;20084;-75
2022/06/27 09:31:33;;;;;;;12.75;8.30;;;;;;;22.88;100.00;96533.44;5035664;28;20447;-75
2022/06/27 09:34:19;;;;;;;12.93;9.20;;;;;;;22.58;100.00;96539.91;5038886;28;20037;-74
2022/06/27 09:36:56;;;;;;;16.52;9.48;;;;;;;22.80;100.00;96548.69;5034365;28;20486;-73
2022/06/27 09:39:31;;;;;;;14.82;8.75;;;;;;;23.23;100.00;96534.09;5032111;28;20067;-74
2022/06/27 09:41:59;;;;;;;13.50;8.50;;;;;;;22.84;100.00;96543.38;5034455;28;20064;-74
2022/06/27 09:44:38;;;;;;;14.48;8.93;;;;;;;22.28;100.00;96542.50;5033842;28;20060;-73
2022/06/27 09:47:25;;;;;;;13.48;9.50;;;;;;;21.95;100.00;96555.75;5051417;28;20045;-74
2022/06/27 09:49:56;;;;;;;13.93;9.65;;;;;;;21.97;100.00;96546.13;5032487;28;20482;-73
2022/06/27 09:52:22;;;;;;;;;;;;;;;22.35;100.00;96533.84;5039742;28;20110;-75
2022/06/27 09:54:50;;;;;;;12.85;8.82;;;;;;;23.04;100.00;96533.72;5040163;28;19912;-74
2022/06/27 09:57:16;;;;;;;16.98;9.60;;;;;;;23.22;100.00;96523.53;5039357;28;20090;-74
2022/06/27 09:59:44;;;;;;;14.35;9.88;;;;;;;23.16;100.00;96524.81;5040216;28;20039;-74
2022/06/27 10:02:11;;;;;;;16.13;9.73;;;;;;;23.08;100.00;96518.28;5039663;28;20037;-72
2022/06/27 10:04:37;;;;;;;12.70;9.57;;;;;;;23.51;100.00;96528.19;5040638;28;20513;-72
2022/06/27 10:07:06;;;;;;;14.52;10.07;;;;;;;23.92;100.00;96530.22;5039444;28;20508;-74
2022/06/27 10:09:32;;;;;;;17.20;10.52;;;;;;;23.61;100.00;96541.50;5037888;28;20033;-73
2022/06/27 10:12:37;;;;;;;15.82;10.45;;;;;;;22.87;100.00;96563.75;5035783;28;20416;-73
2022/06/27 10:15:11;;;;;;;14.80;10.43;;;;;;;22.43;100.00;96566.53;5046105;28;20064;-74
2022/06/27 10:17:46;;;;;;;14.45;10.75;;;;;;;22.62;100.00;96555.28;5047305;28;20179;-74
2022/06/27 10:20:16;;;;;;;15.32;11.07;;;;;;;22.81;100.00;96557.66;5025005;28;20045;-73
2022/06/27 10:22:46;;;;;;;17.52;11.68;;;;;;;23.04;100.00;96561.81;5045194;28;20040;-73
2022/06/27 10:25:40;;;;;;;18.02;13.02;;;;;;;23.52;100.00;96578.94;5021726;28;20040;-74
2022/06/27 10:28:09;;;;;;;21.60;12.65;;;;;;;23.16;100.00;96579.41;5010963;28;20044;-72
2022/06/27 10:30:36;;;;;;;15.27;12.63;;;;;;;23.06;100.00;96578.63;5039086;28;20026;-74
2022/06/27 10:33:27;;;;;;;17.02;13.20;;;;;;;22.29;100.00;96598.59;5037449;28;20151;-75
2022/06/27 10:35:59;;;;;;;20.20;12.90;;;;;;;21.83;100.00;96591.78;5048223;28;20033;-72
2022/06/27 10:38:31;;;;;;;17.73;13.25;;;;;;;22.03;100.00;96606.72;4685668;28;9999975;-73
2022/06/27 10:40:58;;;;;;;21.77;13.27;;;;;;;21.72;100.00;96590.50;5036695;28;20048;-73
2022/06/27 10:43:36;;;;;;;19.52;13.27;;;;;;;21.76;100.00;96599.63;5035836;28;20033;-73
2022/06/27 10:46:13;;;;;;;20.08;13.38;;;;;;;21.99;100.00;96594.84;5031325;28;20037;-73
2022/06/27 10:48:45;;;;;;;20.60;13.88;;;;;;;22.24;100.00;96591.38;5028617;28;20037;-74
2022/06/27 10:51:17;;;;;;;19.58;14.15;;;;;;;22.60;100.00;96592.97;5037962;28;20033;-73
2022/06/27 10:53:43;;;;;;;18.92;12.88;;;;;;;22.95;100.00;96591.00;5038897;28;20094;-73
2022/06/27 10:56:45;;;;;;;18.00;13.77;;;;;;;22.76;100.00;96579.66;5028619;28;20033;-73
2022/06/27 10:59:13;;;;;;;19.48;13.73;;;;;;;22.49;100.00;96592.53;5015595;28;20955;-73
2022/06/27 11:02:05;;;;;;;21.98;14.18;;;;;;;22.18;100.00;96600.84;5034646;28;20049;-73
2022/06/27 11:04:32;;;;;;;22.25;13.68;;;;;;;22.03;100.00;96582.22;5031959;28;20045;-74
2022/06/27 11:07:01;;;;;;;19.38;15.20;;;;;;;21.82;100.00;96581.22;5033818;28;20040;-73
2022/06/27 11:09:44;;;;;;;23.02;14.52;;;;;;;21.76;100.00;96580.53;5033359;28;20452;-73
2022/06/27 11:12:19;;;;;;;21.98;14.55;;;;;;;21.63;100.00;96595.09;5033372;28;20075;-73
2022/06/27 11:14:50;;;;;;;19.73;14.95;;;;;;;21.53;100.00;96598.91;5037491;28;20352;-73
2022/06/27 11:17:42;;;;;;;22.65;16.23;;;;;;;21.56;100.00;96597.50;5031451;28;20057;-75
2022/06/27 11:20:20;;;;;;;24.13;16.73;;;;;;;21.60;100.00;96593.81;5031701;28;20033;-73
2022/06/27 11:22:54;;;;;;;28.70;17.50;;;;;;;21.67;100.00;96582.44;5036687;28;20651;-73
2022/06/27 11:25:21;;;;;;;25.45;17.33;;;;;;;21.65;100.00;96584.69;5032593;28;20041;-72
2022/06/27 11:27:52;;;;;;;24.00;16.13;;;;;;;21.69;100.00;96582.94;5009606;28;20106;-72